createdAt,value
2018-07-05T00:00:14.397Z,98.00
2018-07-05T00:02:54.066Z,98.30
2018-07-05T00:05:33.709Z,98.20
2018-07-05T00:08:13.415Z,98.00
2018-07-05T00:10:53.265Z,98.30
2018-07-05T00:13:32.986Z,98.30
2018-07-05T00:16:12.880Z,98.30
2018-07-05T00:18:52.534Z,98.90
2018-07-05T00:21:32.581Z,98.40
2018-07-05T00:24:12.542Z,98.30
2018-07-05T00:26:52.266Z,98.40
2018-07-05T00:29:31.880Z,98.70
2018-07-05T00:32:11.689Z,99.30
2018-07-05T00:34:51.324Z,99.40
2018-07-05T00:37:30.852Z,99.50
2018-07-05T00:40:10.320Z,98.70
2018-07-05T00:42:49.865Z,98.70
2018-07-05T00:45:29.290Z,99.20
2018-07-05T00:48:08.886Z,99.60
2018-07-05T00:50:48.533Z,99.50
2018-07-05T00:53:28.196Z,99.40
2018-07-05T00:56:07.725Z,99.50
2018-07-05T00:58:47.329Z,99.90
2018-07-05T01:01:26.765Z,99.90
2018-07-05T01:04:06.285Z,99.90
2018-07-05T01:06:45.766Z,99.70
2018-07-05T01:09:25.336Z,99.90
2018-07-05T01:12:05.023Z,99.90
2018-07-05T01:14:44.598Z,99.90
2018-07-05T01:17:24.182Z,99.90
2018-07-05T01:20:03.831Z,99.90
2018-07-05T01:22:43.505Z,99.90
2018-07-05T01:25:22.942Z,99.90
2018-07-05T01:28:02.549Z,99.90
2018-07-05T01:30:42.233Z,99.90
2018-07-05T01:33:21.881Z,99.90
2018-07-05T01:36:01.592Z,99.90
2018-07-05T01:38:41.333Z,99.90
2018-07-05T01:41:21.592Z,99.90
2018-07-05T01:44:01.256Z,99.90
2018-07-05T01:46:40.909Z,99.90
2018-07-05T01:49:20.684Z,99.90
2018-07-05T01:52:00.206Z,99.90
2018-07-05T01:54:39.698Z,99.90
2018-07-05T01:57:19.284Z,99.90
2018-07-05T01:59:58.821Z,99.90
2018-07-05T02:02:38.285Z,99.90
2018-07-05T02:05:17.829Z,99.90
2018-07-05T02:07:57.430Z,99.90
2018-07-05T02:10:37.325Z,99.90
2018-07-05T02:13:16.945Z,99.90
2018-07-05T02:15:56.620Z,99.90
2018-07-05T02:18:36.030Z,99.90
2018-07-05T02:21:15.640Z,99.90
2018-07-05T02:23:55.153Z,99.90
2018-07-05T02:26:35.011Z,99.90
2018-07-05T02:29:14.537Z,99.90
2018-07-05T02:31:54.038Z,99.90
2018-07-05T02:34:33.619Z,99.90
2018-07-05T02:37:18.481Z,99.90
2018-07-05T02:39:57.977Z,99.90
2018-07-05T02:42:37.490Z,99.90
2018-07-05T02:47:50.513Z,99.90
2018-07-05T02:50:29.986Z,99.90
2018-07-05T02:53:09.574Z,99.90
2018-07-05T02:55:49.198Z,99.90
2018-07-05T02:58:28.750Z,99.90
2018-07-05T03:01:08.293Z,99.90
2018-07-05T03:03:47.854Z,99.90
2018-07-05T03:06:27.386Z,99.90
2018-07-05T03:09:07.085Z,99.90
2018-07-05T03:11:47.354Z,99.90
2018-07-05T03:14:27.014Z,99.90
2018-07-05T03:19:40.352Z,99.90
2018-07-05T03:22:19.891Z,99.90
2018-07-05T03:24:59.433Z,99.90
2018-07-05T03:27:39.126Z,99.90
2018-07-05T03:30:18.838Z,99.90
2018-07-05T03:32:58.338Z,99.90
2018-07-05T03:35:37.821Z,99.90
2018-07-05T03:38:17.298Z,99.90
2018-07-05T03:40:56.878Z,99.90
2018-07-05T03:43:36.362Z,99.90
2018-07-05T03:46:15.962Z,99.90
2018-07-05T03:48:55.417Z,99.90
2018-07-05T03:54:08.637Z,99.90
2018-07-05T03:56:48.237Z,99.90
2018-07-05T03:59:27.903Z,99.90
2018-07-05T04:02:07.431Z,99.90
2018-07-05T04:04:47.122Z,99.90
2018-07-05T04:07:26.911Z,99.90
2018-07-05T04:10:06.577Z,99.90
2018-07-05T04:12:46.638Z,99.90
2018-07-05T04:15:26.362Z,99.90
2018-07-05T04:20:44.954Z,99.90
2018-07-05T04:23:24.572Z,99.90
2018-07-05T04:26:04.121Z,99.90
2018-07-05T04:28:43.726Z,99.90
2018-07-05T04:31:23.309Z,99.90
2018-07-05T04:34:03.021Z,99.90
2018-07-05T04:36:42.494Z,99.90
2018-07-05T04:39:22.737Z,99.90
2018-07-05T04:42:02.292Z,99.90
2018-07-05T04:44:41.869Z,99.90
2018-07-05T04:47:21.872Z,99.90
2018-07-05T04:52:35.302Z,99.90
2018-07-05T04:55:15.066Z,99.90
2018-07-05T04:57:54.658Z,99.90
2018-07-05T05:00:34.174Z,99.90
2018-07-05T05:03:15.001Z,99.90
2018-07-05T05:05:54.557Z,99.90
2018-07-05T05:08:34.061Z,99.90
2018-07-05T05:11:13.701Z,99.90
2018-07-05T05:13:53.437Z,99.90
2018-07-05T05:19:06.712Z,99.90
2018-07-05T05:21:47.121Z,99.90
2018-07-05T05:24:26.825Z,99.90
2018-07-05T05:27:06.409Z,99.90
2018-07-05T05:29:46.017Z,99.90
2018-07-05T05:32:25.558Z,99.90
2018-07-05T05:35:05.141Z,99.90
2018-07-05T05:37:44.649Z,99.90
2018-07-05T05:40:24.274Z,99.90
2018-07-05T05:43:03.882Z,99.90
2018-07-05T05:45:43.432Z,99.90
2018-07-05T05:48:22.978Z,99.90
2018-07-05T05:51:02.694Z,99.90
2018-07-05T05:53:42.752Z,99.90
2018-07-05T05:56:22.906Z,99.90
2018-07-05T05:59:02.734Z,99.90
2018-07-05T06:01:42.195Z,99.90
2018-07-05T06:04:21.821Z,99.90
2018-07-05T06:07:01.588Z,99.90
2018-07-05T06:09:41.354Z,99.90
2018-07-05T06:12:21.035Z,99.90
2018-07-05T06:15:00.686Z,99.90
2018-07-05T06:17:40.442Z,99.90
2018-07-05T06:20:20.318Z,99.90
2018-07-05T06:23:00.050Z,99.90
2018-07-05T06:25:39.657Z,99.90
2018-07-05T06:28:19.229Z,99.90
2018-07-05T06:30:58.757Z,99.90
2018-07-05T06:33:38.227Z,99.90
2018-07-05T06:36:17.773Z,99.90
2018-07-05T06:38:57.394Z,99.90
2018-07-05T06:41:36.811Z,99.90
2018-07-05T06:44:16.445Z,99.90
2018-07-05T06:46:55.890Z,99.90
2018-07-05T06:49:35.432Z,99.90
2018-07-05T06:52:14.994Z,99.90
2018-07-05T06:54:54.511Z,99.90
2018-07-05T06:57:33.993Z,99.90
2018-07-05T07:00:13.609Z,99.90
2018-07-05T07:02:53.082Z,98.90
2018-07-05T07:05:32.654Z,98.70
2018-07-05T07:08:12.258Z,99.00
2018-07-05T07:10:51.910Z,99.20
2018-07-05T07:13:31.629Z,98.80
2018-07-05T07:16:12.378Z,98.50
2018-07-05T07:18:51.877Z,97.60
2018-07-05T07:21:31.479Z,97.60
2018-07-05T07:24:10.933Z,97.80
2018-07-05T07:26:50.888Z,97.30
2018-07-05T07:29:30.425Z,96.40
2018-07-05T07:32:10.038Z,96.50
2018-07-05T07:34:49.640Z,96.40
2018-07-05T07:37:29.248Z,96.30
2018-07-05T07:40:08.681Z,95.70
2018-07-05T07:42:36.012Z,95.30
2018-07-05T07:45:03.283Z,94.80
2018-07-05T07:47:30.558Z,94.90
2018-07-05T07:49:57.878Z,93.90
2018-07-05T07:52:25.173Z,94.30
2018-07-05T07:54:52.769Z,94.40
2018-07-05T07:57:20.277Z,93.60
2018-07-05T07:59:47.602Z,93.40
2018-07-05T08:02:15.032Z,92.70
2018-07-05T08:04:42.365Z,92.50
2018-07-05T08:07:09.845Z,92.50
2018-07-05T08:09:37.209Z,92.40
2018-07-05T08:12:04.498Z,93.00
2018-07-05T08:14:31.790Z,93.60
2018-07-05T08:16:59.096Z,92.80
2018-07-05T08:19:26.394Z,91.50
2018-07-05T08:21:53.728Z,91.40
2018-07-05T08:24:21.062Z,91.20
2018-07-05T08:26:48.417Z,91.10
2018-07-05T08:29:15.694Z,90.80
2018-07-05T08:31:42.975Z,90.50
2018-07-05T08:34:10.386Z,90.40
2018-07-05T08:36:37.919Z,91.20
2018-07-05T08:39:05.884Z,91.80
2018-07-05T08:44:00.842Z,91.20
2018-07-05T08:46:28.125Z,90.40
2018-07-05T08:48:55.421Z,90.00
2018-07-05T08:51:22.788Z,89.40
2018-07-05T08:53:50.100Z,87.80
2018-07-05T08:56:17.401Z,87.10
2018-07-05T08:58:44.686Z,86.20
2018-07-05T09:01:12.014Z,86.90
2018-07-05T09:03:39.282Z,86.30
2018-07-05T09:06:06.550Z,87.10
2018-07-05T09:08:33.958Z,86.10
2018-07-05T09:11:01.257Z,84.80
2018-07-05T09:13:28.517Z,86.60
2018-07-05T09:15:56.127Z,85.20
2018-07-05T09:18:23.443Z,85.70
2018-07-05T09:20:52.269Z,82.90
2018-07-05T09:23:19.575Z,84.50
2018-07-05T09:25:46.882Z,82.40
2018-07-05T09:28:14.158Z,83.00
2018-07-05T09:30:41.589Z,79.40
2018-07-05T09:33:08.926Z,77.50
2018-07-05T09:35:36.623Z,78.90
2018-07-05T09:38:03.933Z,79.40
2018-07-05T09:40:31.254Z,78.80
2018-07-05T09:42:58.537Z,75.50
2018-07-05T09:45:25.810Z,73.40
2018-07-05T09:47:53.101Z,70.70
2018-07-05T09:50:20.466Z,74.70
2018-07-05T09:52:47.838Z,77.80
2018-07-05T09:55:15.115Z,78.30
2018-07-05T09:57:42.443Z,80.00
2018-07-05T10:00:11.741Z,77.30
2018-07-05T10:02:40.100Z,77.00
2018-07-05T10:05:07.361Z,77.30
2018-07-05T10:07:34.761Z,75.70
2018-07-05T10:10:02.601Z,76.60
2018-07-05T10:12:29.894Z,77.80
2018-07-05T10:14:57.200Z,75.90
2018-07-05T10:17:24.501Z,74.70
2018-07-05T10:19:54.026Z,72.80
2018-07-05T10:22:21.297Z,74.30
2018-07-05T10:24:48.819Z,73.00
2018-07-05T10:27:16.166Z,74.20
2018-07-05T10:29:55.724Z,73.40
2018-07-05T10:32:35.153Z,73.50
2018-07-05T10:35:02.571Z,73.30
2018-07-05T10:37:29.874Z,74.80
2018-07-05T10:40:09.521Z,75.00
2018-07-05T10:42:49.277Z,73.20
2018-07-05T10:45:28.849Z,75.20
2018-07-05T10:48:08.378Z,74.40
2018-07-05T10:50:47.980Z,75.30
2018-07-05T10:53:27.535Z,74.30
2018-07-05T10:56:06.982Z,74.50
2018-07-05T10:58:47.286Z,74.90
2018-07-05T11:01:27.385Z,73.30
2018-07-05T11:04:06.929Z,72.80
2018-07-05T11:06:46.618Z,73.10
2018-07-05T11:09:26.377Z,74.20
2018-07-05T11:12:06.077Z,73.00
2018-07-05T11:14:45.785Z,75.00
2018-07-05T11:17:25.723Z,72.20
2018-07-05T11:20:06.278Z,72.80
2018-07-05T11:22:46.012Z,71.40
2018-07-05T11:25:25.838Z,74.60
2018-07-05T11:28:06.026Z,73.00
2018-07-05T11:30:45.669Z,72.10
2018-07-05T11:33:25.249Z,73.70
2018-07-05T11:36:05.026Z,73.80
2018-07-05T11:38:44.662Z,73.60
2018-07-05T11:41:24.213Z,71.90
2018-07-05T11:44:03.805Z,72.00
2018-07-05T11:46:43.553Z,72.40
2018-07-05T11:49:23.061Z,74.00
2018-07-05T11:52:02.545Z,72.60
2018-07-05T11:54:42.052Z,71.10
2018-07-05T11:57:21.622Z,72.10
2018-07-05T12:00:01.227Z,71.20
2018-07-05T12:02:40.929Z,70.60
2018-07-05T12:05:24.775Z,69.30
2018-07-05T12:08:04.452Z,70.30
2018-07-05T12:10:44.175Z,71.10
2018-07-05T12:13:23.736Z,70.30
2018-07-05T12:16:03.426Z,69.70
2018-07-05T12:18:42.965Z,68.80
2018-07-05T12:21:23.232Z,70.00
2018-07-05T12:24:02.980Z,68.80
2018-07-05T12:26:42.473Z,68.60
2018-07-05T12:29:22.080Z,70.40
2018-07-05T12:32:01.594Z,70.30
2018-07-05T12:34:41.114Z,67.60
2018-07-05T12:37:20.789Z,66.60
2018-07-05T12:40:00.458Z,67.30
2018-07-05T12:42:40.059Z,69.30
2018-07-05T12:45:19.786Z,70.10
2018-07-05T12:47:59.477Z,73.30
2018-07-05T12:50:39.037Z,71.00
2018-07-05T12:53:18.722Z,72.60
2018-07-05T12:55:58.581Z,73.00
2018-07-05T12:58:38.642Z,69.60
2018-07-05T13:01:18.553Z,73.00
2018-07-05T13:03:58.681Z,71.20
2018-07-05T13:06:38.616Z,71.10
2018-07-05T13:09:18.053Z,70.10
2018-07-05T13:11:58.350Z,72.00
2018-07-05T13:14:38.546Z,70.00
2018-07-05T13:17:18.227Z,67.80
2018-07-05T13:19:57.969Z,67.30
2018-07-05T13:22:37.581Z,67.00
2018-07-05T13:27:50.887Z,69.50
2018-07-05T13:30:31.209Z,71.30
2018-07-05T13:33:10.777Z,71.30
2018-07-05T13:35:50.382Z,68.50
2018-07-05T13:38:29.845Z,71.90
2018-07-05T13:41:09.377Z,73.30
2018-07-05T13:43:49.045Z,74.30
2018-07-05T13:46:28.577Z,71.60
2018-07-05T13:49:09.075Z,70.20
2018-07-05T13:51:48.814Z,67.80
2018-07-05T13:54:28.403Z,68.40
2018-07-05T13:57:08.025Z,67.10
2018-07-05T13:59:47.641Z,69.50
2018-07-05T14:02:27.253Z,67.50
2018-07-05T14:05:06.785Z,66.00
2018-07-05T14:07:47.373Z,66.50
2018-07-05T14:10:27.077Z,70.30
2018-07-05T14:13:06.571Z,67.40
2018-07-05T14:15:46.090Z,66.40
2018-07-05T14:18:25.763Z,66.60
2018-07-05T14:21:05.924Z,68.40
2018-07-05T14:23:45.577Z,68.70
2018-07-05T14:28:58.782Z,66.60
2018-07-05T14:31:38.476Z,66.60
2018-07-05T14:34:18.001Z,65.60
2018-07-05T14:36:57.523Z,67.20
2018-07-05T14:39:37.248Z,67.40
2018-07-05T14:42:16.757Z,68.60
2018-07-05T14:44:57.227Z,69.00
2018-07-05T14:47:36.730Z,65.70
2018-07-05T14:50:16.329Z,70.00
2018-07-05T14:52:55.990Z,68.20
2018-07-05T14:55:35.539Z,67.50
2018-07-05T14:58:15.225Z,68.00
2018-07-05T15:03:28.270Z,65.10
2018-07-05T15:06:08.373Z,65.80
2018-07-05T15:08:48.034Z,64.30
2018-07-05T15:11:27.573Z,64.80
2018-07-05T15:14:07.277Z,64.60
2018-07-05T15:16:47.429Z,63.00
2018-07-05T15:19:26.973Z,63.20
2018-07-05T15:22:06.517Z,62.50
2018-07-05T15:24:46.426Z,64.30
2018-07-05T15:27:26.501Z,63.30
2018-07-05T15:30:06.149Z,66.80
2018-07-05T15:32:46.965Z,68.70
2018-07-05T15:35:26.580Z,68.00
2018-07-05T15:38:06.204Z,69.90
2018-07-05T15:40:46.290Z,69.40
2018-07-05T15:43:25.829Z,70.70
2018-07-05T15:46:05.497Z,73.70
2018-07-05T15:48:45.126Z,73.80
2018-07-05T15:51:25.158Z,74.70
2018-07-05T15:54:04.578Z,75.10
2018-07-05T15:56:44.133Z,75.10
2018-07-05T15:59:23.686Z,75.80
2018-07-05T16:02:03.345Z,77.50
2018-07-05T16:04:42.770Z,77.80
2018-07-05T16:07:22.286Z,77.80
2018-07-05T16:10:02.025Z,77.10
2018-07-05T16:12:41.757Z,77.90
2018-07-05T16:15:22.164Z,77.50
2018-07-05T16:18:01.973Z,78.80
2018-07-05T16:20:41.682Z,79.00
2018-07-05T16:23:21.478Z,78.50
2018-07-05T16:26:02.226Z,80.20
2018-07-05T16:31:15.526Z,80.50
2018-07-05T16:33:55.045Z,80.80
2018-07-05T16:36:34.693Z,81.10
2018-07-05T16:39:14.321Z,82.10
2018-07-05T16:41:53.753Z,82.40
2018-07-05T16:44:33.273Z,82.80
2018-07-05T16:47:12.810Z,82.40
2018-07-05T16:49:52.324Z,82.20
2018-07-05T16:52:32.042Z,83.20
2018-07-05T16:55:14.349Z,83.80
2018-07-05T16:57:54.472Z,83.20
2018-07-05T17:00:33.977Z,83.50
2018-07-05T17:03:13.697Z,83.60
2018-07-05T17:05:53.263Z,84.90
2018-07-05T17:08:33.742Z,84.90
2018-07-05T17:11:13.473Z,85.30
2018-07-05T17:13:54.384Z,84.30
2018-07-05T17:16:34.424Z,84.30
2018-07-05T17:19:14.813Z,85.60
2018-07-05T17:21:54.873Z,84.70
2018-07-05T17:24:34.812Z,84.50
2018-07-05T17:27:15.278Z,84.90
2018-07-05T17:29:55.115Z,85.80
2018-07-05T17:32:34.962Z,86.10
2018-07-05T17:35:14.591Z,86.80
2018-07-05T17:37:54.837Z,87.30
2018-07-05T17:40:34.558Z,87.70
2018-07-05T17:43:14.204Z,88.50
2018-07-05T17:45:54.018Z,90.00
2018-07-05T17:48:33.623Z,89.30
2018-07-05T17:51:13.246Z,89.60
2018-07-05T17:53:52.779Z,90.20
2018-07-05T17:56:32.458Z,90.70
2018-07-05T17:59:11.998Z,90.40
2018-07-05T18:01:51.753Z,90.90
2018-07-05T18:04:31.631Z,91.00
2018-07-05T18:07:11.301Z,90.40
2018-07-05T18:09:50.926Z,88.90
2018-07-05T18:12:30.533Z,88.50
2018-07-05T18:17:44.142Z,89.90
2018-07-05T18:20:23.880Z,89.00
2018-07-05T18:23:03.730Z,89.20
2018-07-05T18:25:43.391Z,89.20
2018-07-05T18:28:24.767Z,89.50
2018-07-05T18:31:07.184Z,90.30
2018-07-05T18:33:49.623Z,90.10
2018-07-05T18:36:29.430Z,90.30
2018-07-05T18:39:09.922Z,90.60
2018-07-05T18:41:50.030Z,90.80
2018-07-05T18:44:30.148Z,91.60
2018-07-05T18:47:10.090Z,91.90
2018-07-05T18:49:51.474Z,92.80
2018-07-05T18:52:31.327Z,92.90
2018-07-05T18:55:11.492Z,93.40
2018-07-05T18:57:51.633Z,93.60
2018-07-05T19:00:31.086Z,93.60
2018-07-05T19:03:11.044Z,93.70
2018-07-05T19:05:50.754Z,93.90
2018-07-05T19:08:30.321Z,93.90
2018-07-05T19:11:09.785Z,94.10
2018-07-05T19:13:49.400Z,94.00
2018-07-05T19:16:29.266Z,94.40
2018-07-05T19:19:08.739Z,94.70
2018-07-05T19:21:48.346Z,94.60
2018-07-05T19:24:27.952Z,95.30
2018-07-05T19:27:07.630Z,95.60
2018-07-05T19:29:49.325Z,95.80
2018-07-05T19:32:29.797Z,95.70
2018-07-05T19:35:09.366Z,95.60
2018-07-05T19:37:48.900Z,96.20
2018-07-05T19:40:28.453Z,95.90
2018-07-05T19:43:07.919Z,96.40
2018-07-05T19:45:47.737Z,96.50
2018-07-05T19:48:27.250Z,96.40
2018-07-05T19:51:06.861Z,96.50
2018-07-05T19:53:46.430Z,96.40
2018-07-05T19:56:25.927Z,96.50
2018-07-05T19:59:05.519Z,96.70
2018-07-05T20:01:45.092Z,97.00
2018-07-05T20:04:24.855Z,97.20
2018-07-05T20:07:04.497Z,97.50
2018-07-05T20:09:44.080Z,97.50
2018-07-05T20:12:23.513Z,97.60
2018-07-05T20:15:03.220Z,97.60
2018-07-05T20:17:42.894Z,98.00
2018-07-05T20:20:22.782Z,97.70
2018-07-05T20:23:03.405Z,97.70
2018-07-05T20:25:42.864Z,97.90
2018-07-05T20:28:22.403Z,98.20
2018-07-05T20:31:02.223Z,98.20
2018-07-05T20:36:15.515Z,98.60
2018-07-05T20:38:55.225Z,98.50
2018-07-05T20:41:34.850Z,98.60
2018-07-05T20:44:14.615Z,98.80
2018-07-05T20:46:54.408Z,98.80
2018-07-05T20:49:33.924Z,98.70
2018-07-05T20:52:13.533Z,99.00
2018-07-05T20:54:53.142Z,99.10
2018-07-05T20:57:32.781Z,99.40
2018-07-05T21:00:12.493Z,99.50
2018-07-05T21:02:52.250Z,99.60
2018-07-05T21:05:31.853Z,99.40
2018-07-05T21:08:11.331Z,99.60
2018-07-05T21:10:50.909Z,99.90
2018-07-05T21:13:30.430Z,99.80
2018-07-05T21:16:09.973Z,99.90
2018-07-05T21:18:49.643Z,99.90
2018-07-05T21:24:03.650Z,99.90
2018-07-05T21:26:43.129Z,99.90
2018-07-05T21:29:22.553Z,99.90
2018-07-05T21:32:02.203Z,99.90
2018-07-05T21:34:41.817Z,99.90
2018-07-05T21:37:21.418Z,99.90
2018-07-05T21:42:36.076Z,99.90
2018-07-05T21:45:15.722Z,99.90
2018-07-05T21:47:55.232Z,99.90
2018-07-05T21:50:34.689Z,99.90
2018-07-05T21:53:14.483Z,99.90
2018-07-05T21:55:54.090Z,99.90
2018-07-05T21:58:33.603Z,99.90
2018-07-05T22:01:13.090Z,99.90
2018-07-05T22:03:52.698Z,99.90
2018-07-05T22:06:33.273Z,99.90
2018-07-05T22:09:12.706Z,99.90
2018-07-05T22:11:52.310Z,99.90
2018-07-05T22:14:31.943Z,99.90
2018-07-05T22:17:16.875Z,99.90
2018-07-05T22:20:01.868Z,99.90
2018-07-05T22:22:47.594Z,99.90
2018-07-05T22:25:32.577Z,99.90
2018-07-05T22:28:18.661Z,99.90
2018-07-05T22:31:03.576Z,99.90
2018-07-05T22:33:43.166Z,99.90
2018-07-05T22:36:22.798Z,99.90
2018-07-05T22:39:02.403Z,99.90
2018-07-05T22:41:42.079Z,99.90
2018-07-05T22:44:21.726Z,99.90
2018-07-05T22:47:01.233Z,99.90
2018-07-05T22:49:40.649Z,99.90
2018-07-05T22:54:53.777Z,99.90
2018-07-05T22:57:34.273Z,99.90
2018-07-05T23:00:13.816Z,99.90
2018-07-05T23:02:53.358Z,99.90
2018-07-05T23:05:32.965Z,99.90
2018-07-05T23:08:12.689Z,99.90
2018-07-05T23:10:52.491Z,99.90
2018-07-05T23:13:32.113Z,99.90
2018-07-05T23:16:11.753Z,99.90
2018-07-05T23:18:51.507Z,99.90
2018-07-05T23:21:31.255Z,99.90
2018-07-05T23:24:10.938Z,99.90
2018-07-05T23:26:50.570Z,99.90
2018-07-05T23:29:30.274Z,99.90
2018-07-05T23:32:10.021Z,99.90
2018-07-05T23:34:49.683Z,99.90
2018-07-05T23:37:29.240Z,99.90
2018-07-05T23:40:08.981Z,99.90
2018-07-05T23:42:48.629Z,99.90
2018-07-05T23:45:28.255Z,99.90
2018-07-05T23:48:07.845Z,99.90
2018-07-05T23:50:47.358Z,99.90
2018-07-05T23:53:26.921Z,99.90
2018-07-05T23:56:06.556Z,99.90
2018-07-05T23:58:46.141Z,99.90
